Time;durP1;ratioP1;P1;durP2;ratioP2;P2;SDS_P1;SDS_P2;PMS_P1;PMS_P2;Temp;Humidity;BMP_temperature;BMP_pressure;BME280_temperature;BME280_humidity;BME280_pressure;Samples;Min_cycle;Max_cycle;Signal;HPM_P1;HPM_P2
2023/09/06 00:01:39;;;;;;;12.35;4.28;;;26.50;75.00;;;;;;7387018;19;20007;-82
2023/09/06 00:04:09;;;;;;;13.68;4.70;;;26.40;75.10;;;;;;7385567;19;20020;-81
2023/09/06 00:06:46;;;;;;;7.00;3.97;;;26.50;75.30;;;;;;7385782;19;20420;-80
2023/09/06 00:09:18;;;;;;;11.23;4.30;;;26.50;75.40;;;;;;7386090;19;20404;-81
2023/09/06 00:11:47;;;;;;;12.43;3.97;;;26.50;75.50;;;;;;7386878;19;20029;-81
2023/09/06 00:14:20;;;;;;;12.27;3.75;;;26.50;75.60;;;;;;7397041;19;20010;-81
2023/09/06 00:16:51;;;;;;;13.15;4.18;;;26.50;75.60;;;;;;7383567;19;20023;-81
2023/09/06 00:19:23;;;;;;;;;;;26.50;75.50;;;;;;7408000;19;20029;-81
2023/09/06 00:21:54;;;;;;;10.48;4.30;;;26.60;75.70;;;;;;7384613;19;19919;-81
2023/09/06 00:24:32;;;;;;;13.13;4.13;;;26.50;75.50;;;;;;7384515;19;20006;-81
2023/09/06 00:27:14;;;;;;;18.77;4.40;;;26.50;75.30;;;;;;7386723;19;20006;-81
2023/09/06 00:29:55;;;;;;;12.00;4.28;;;26.60;75.40;;;;;;7386223;19;20003;-81
2023/09/06 00:32:28;;;;;;;10.98;4.55;;;26.50;75.10;;;;;;7387018;19;20011;-81
2023/09/06 00:35:03;;;;;;;7.53;4.13;;;26.50;75.20;;;;;;7409082;19;20200;-81
2023/09/06 00:37:42;;;;;;;9.60;3.88;;;26.40;75.40;;;;;;7401210;19;20003;-81
2023/09/06 00:40:18;;;;;;;11.77;4.72;;;26.40;75.80;;;;;;7392299;19;20010;-81
2023/09/06 00:42:51;;;;;;;15.98;4.40;;;26.40;76.10;;;;;;7385891;19;20006;-81
2023/09/06 00:45:26;;;;;;;9.70;3.95;;;26.40;76.30;;;;;;7386191;19;20003;-81
2023/09/06 00:48:05;;;;;;;10.02;4.80;;;26.30;76.20;;;;;;7386210;19;20419;-81
2023/09/06 00:50:38;;;;;;;10.73;4.32;;;26.30;76.00;;;;;;7385111;19;20007;-81
2023/09/06 00:53:13;;;;;;;18.85;4.43;;;26.30;76.00;;;;;;7404444;19;20003;-81
2023/09/06 00:55:45;;;;;;;10.85;4.32;;;26.20;76.10;;;;;;7383848;19;20006;-81
2023/09/06 00:58:20;;;;;;;13.05;4.30;;;26.20;76.20;;;;;;7383734;19;20397;-81
2023/09/06 01:01:06;;;;;;;8.80;4.18;;;26.20;76.30;;;;;;7384855;19;20026;-81
2023/09/06 01:06:32;;;;;;;9.38;4.28;;;26.20;76.30;;;;;;7383960;19;20390;-81
2023/09/06 01:09:24;;;;;;;7.97;4.73;;;26.20;76.50;;;;;;7383653;19;20007;-81
2023/09/06 01:12:17;;;;;;;13.23;4.38;;;26.20;76.60;;;;;;7382817;19;20009;-81
2023/09/06 01:14:53;;;;;;;9.00;4.10;;;26.20;76.70;;;;;;7385898;19;20018;-80
2023/09/06 01:17:33;;;;;;;10.52;4.65;;;26.20;77.40;;;;;;7382262;19;20020;-81
2023/09/06 01:20:29;;;;;;;7.40;4.10;;;26.20;76.20;;;;;;7404118;19;20027;-81
2023/09/06 01:23:13;;;;;;;8.38;4.03;;;26.20;76.20;;;;;;7383151;19;20010;-81
2023/09/06 01:25:55;;;;;;;8.55;4.72;;;26.10;76.30;;;;;;7383925;19;20421;-81
2023/09/06 01:28:31;;;;;;;7.40;3.85;;;26.10;76.60;;;;;;7383464;19;20003;-80
2023/09/06 01:31:06;;;;;;;10.63;4.18;;;26.10;76.80;;;;;;7384464;19;20066;-80
2023/09/06 01:33:44;;;;;;;15.85;4.63;;;26.10;76.90;;;;;;7380568;19;20057;-81
2023/09/06 01:36:27;;;;;;;10.00;4.40;;;26.10;77.00;;;;;;7383564;19;20106;-80
2023/09/06 01:39:05;;;;;;;7.70;4.07;;;26.10;77.00;;;;;;7382556;19;20251;-81
2023/09/06 01:42:02;;;;;;;9.27;4.22;;;26.00;76.90;;;;;;7384408;19;20719;-79
2023/09/06 01:44:37;;;;;;;11.73;4.35;;;25.90;77.00;;;;;;7384016;19;20345;-80
2023/09/06 01:47:08;;;;;;;12.18;4.28;;;25.80;77.30;;;;;;7404610;19;20014;-80
2023/09/06 01:49:38;;;;;;;9.57;4.67;;;25.70;77.50;;;;;;7382661;19;20362;-80
2023/09/06 01:52:08;;;;;;;15.00;4.30;;;25.70;77.80;;;;;;7383109;19;20264;-80
2023/09/06 01:54:45;;;;;;;11.57;5.00;;;25.60;77.80;;;;;;7383134;19;20386;-80
2023/09/06 01:57:20;;;;;;;11.52;4.40;;;25.60;77.90;;;;;;7382685;19;20290;-80
2023/09/06 01:59:54;;;;;;;12.38;4.57;;;25.60;77.90;;;;;;7382094;19;20020;-80
2023/09/06 02:02:26;;;;;;;6.60;4.00;;;25.50;77.80;;;;;;7382997;19;20025;-81
2023/09/06 02:05:11;;;;;;;12.10;4.78;;;25.50;78.00;;;;;;7402866;19;20003;-80
2023/09/06 02:07:43;;;;;;;11.73;4.90;;;25.50;78.10;;;;;;7383857;19;20029;-80
2023/09/06 02:10:16;;;;;;;8.25;4.47;;;25.50;78.10;;;;;;7385872;19;20060;-81
2023/09/06 02:12:51;;;;;;;9.23;4.25;;;25.50;78.30;;;;;;7382684;19;20014;-80
2023/09/06 02:15:22;;;;;;;14.32;4.28;;;25.50;78.10;;;;;;7381948;19;20005;-80
2023/09/06 02:17:53;;;;;;;8.82;4.40;;;25.50;78.00;;;;;;7388298;19;20007;-80
2023/09/06 02:20:28;;;;;;;8.85;4.00;;;25.50;78.00;;;;;;7402888;19;20011;-81
2023/09/06 02:22:58;;;;;;;8.48;4.22;;;25.50;78.20;;;;;;7427080;19;20010;-81
2023/09/06 02:25:38;;;;;;;7.70;4.35;;;25.40;78.30;;;;;;7405813;19;20022;-80
2023/09/06 02:28:12;;;;;;;8.27;4.43;;;25.40;78.50;;;;;;7382972;19;20305;-79
2023/09/06 02:30:42;;;;;;;12.30;4.82;;;25.30;78.50;;;;;;7382803;19;20298;-81
2023/09/06 02:33:16;;;;;;;9.15;4.03;;;25.30;78.60;;;;;;7382466;19;20073;-81
2023/09/06 02:35:55;;;;;;;9.38;4.38;;;25.30;78.60;;;;;;7381241;19;20357;-80
2023/09/06 02:38:26;;;;;;;12.18;4.72;;;25.30;78.60;;;;;;7380308;19;20003;-81
2023/09/06 02:40:58;;;;;;;;;;;25.30;78.50;;;;;;7402547;19;20025;-81
2023/09/06 02:43:37;;;;;;;7.90;4.40;;;25.40;78.30;;;;;;7381473;19;19903;-80
2023/09/06 02:46:18;;;;;;;9.80;4.38;;;25.40;78.10;;;;;;7381240;19;20003;-80
2023/09/06 02:49:11;;;;;;;7.40;4.20;;;25.40;78.10;;;;;;7381336;19;20044;-80
2023/09/06 02:52:01;;;;;;;10.18;4.32;;;25.40;78.10;;;;;;7381408;19;20031;-80
2023/09/06 02:54:30;;;;;;;10.33;4.13;;;25.40;78.30;;;;;;7381989;19;20686;-80
2023/09/06 02:57:04;;;;;;;12.70;4.25;;;25.40;78.40;;;;;;7380750;19;20234;-80
2023/09/06 02:59:37;;;;;;;13.15;4.53;;;25.40;78.40;;;;;;7382150;19;20002;-80
2023/09/06 03:02:18;;;;;;;11.45;4.80;;;25.40;78.60;;;;;;7402069;19;20007;-80
2023/09/06 03:04:54;;;;;;;11.63;4.30;;;25.40;78.40;;;;;;7382093;19;20013;-80
2023/09/06 03:07:26;;;;;;;7.75;4.60;;;25.40;78.40;;;;;;7384982;19;20017;-80
2023/09/06 03:10:07;;;;;;;8.02;4.50;;;25.30;78.30;;;;;;7380085;19;20007;-80
2023/09/06 03:12:46;;;;;;;11.13;4.78;;;25.30;78.40;;;;;;7379722;19;20010;-79
2023/09/06 03:15:22;;;;;;;10.75;4.15;;;25.30;78.50;;;;;;7379310;19;20003;-80
2023/09/06 03:17:58;;;;;;;13.70;4.80;;;25.30;78.50;;;;;;7382015;19;20074;-81
2023/09/06 03:20:42;;;;;;;9.80;4.97;;;25.30;78.60;;;;;;7380861;19;20336;-81
2023/09/06 03:23:17;;;;;;;9.90;4.72;;;25.30;78.70;;;;;;7403084;19;20014;-81
2023/09/06 03:25:47;;;;;;;12.65;4.90;;;25.30;78.80;;;;;;7381076;19;20018;-81
2023/09/06 03:28:30;;;;;;;14.05;5.03;;;25.20;78.70;;;;;;7380763;19;20211;-80
2023/09/06 03:31:08;;;;;;;12.95;4.88;;;25.10;78.60;;;;;;7380957;19;20037;-80
2023/09/06 03:33:41;;;;;;;7.60;4.32;;;25.10;78.90;;;;;;7378602;19;20006;-80
2023/09/06 03:36:12;;;;;;;9.70;5.00;;;25.10;78.90;;;;;;7380130;19;20029;-81
2023/09/06 03:38:41;;;;;;;9.30;4.90;;;25.10;78.90;;;;;;7379967;19;20009;-81
2023/09/06 03:41:23;;;;;;;13.07;4.50;;;25.00;79.10;;;;;;7402436;19;20003;-82
2023/09/06 03:43:56;;;;;;;7.05;4.57;;;25.00;79.30;;;;;;7381056;19;20018;-81
2023/09/06 03:46:31;;;;;;;7.90;4.40;;;25.00;79.30;;;;;;7380058;19;20020;-81
2023/09/06 03:49:08;;;;;;;10.32;4.80;;;24.90;79.40;;;;;;7379390;19;20010;-82
2023/09/06 03:51:44;;;;;;;11.02;4.63;;;24.90;79.50;;;;;;7379479;19;20250;-81
2023/09/06 03:54:14;;;;;;;12.20;4.78;;;24.90;79.80;;;;;;7378395;19;20007;-81
2023/09/06 03:56:45;;;;;;;16.13;4.90;;;24.90;79.70;;;;;;7380036;19;20441;-81
2023/09/06 03:59:21;;;;;;;10.57;4.70;;;24.90;79.70;;;;;;7409111;19;20017;-82
2023/09/06 04:01:59;;;;;;;13.15;5.22;;;25.00;79.60;;;;;;7389027;19;20015;-81
2023/09/06 04:04:32;;;;;;;11.80;4.68;;;25.00;79.50;;;;;;7399541;19;20017;-82
2023/09/06 04:07:07;;;;;;;14.18;5.07;;;25.00;79.40;;;;;;7405703;19;20014;-80
2023/09/06 04:09:39;;;;;;;10.18;4.43;;;24.90;79.40;;;;;;7407475;19;20003;-80
2023/09/06 04:12:29;;;;;;;;;;;;;;;;;;;;;
2023/09/06 04:14:59;;;;;;;9.75;4.68;;;25.00;79.70;;;;;;7386620;19;20029;-80
2023/09/06 04:17:31;;;;;;;16.70;6.22;;;24.90;79.70;;;;;;7388046;19;20007;-80
2023/09/06 04:22:52;;;;;;;16.65;5.68;;;24.90;79.80;;;;;;7389920;19;19917;-81
2023/09/06 04:25:22;;;;;;;21.73;6.22;;;24.90;79.70;;;;;;7389072;19;20011;-81
2023/09/06 04:28:07;;;;;;;13.43;5.63;;;24.90;79.80;;;;;;7387237;19;19999;-81
2023/09/06 04:30:38;;;;;;;15.30;6.00;;;24.90;79.80;;;;;;7385444;19;20074;-81
2023/09/06 04:33:19;;;;;;;15.00;6.15;;;24.90;79.80;;;;;;7384138;19;20010;-80
2023/09/06 04:35:53;;;;;;;13.20;5.80;;;24.90;79.80;;;;;;7384430;19;20017;-80
2023/09/06 04:38:23;;;;;;;17.83;5.72;;;24.90;79.80;;;;;;7383573;19;20321;-80
2023/09/06 04:40:52;;;;;;;17.88;5.72;;;24.90;79.90;;;;;;7404263;19;20010;-79
2023/09/06 04:43:22;;;;;;;12.88;6.70;;;24.80;79.70;;;;;;7384940;19;20033;-79
2023/09/06 04:45:56;;;;;;;25.50;6.05;;;24.90;80.00;;;;;;7384414;19;20015;-80
2023/09/06 04:48:28;;;;;;;17.17;5.63;;;24.80;80.00;;;;;;7386510;19;20027;-79
2023/09/06 04:50:59;;;;;;;16.33;5.10;;;24.80;80.60;;;;;;7384234;19;20013;-80
2023/09/06 04:53:28;;;;;;;14.07;5.68;;;24.80;79.70;;;;;;7383418;19;20003;-80
2023/09/06 04:56:06;;;;;;;10.15;5.13;;;24.80;79.90;;;;;;7404412;19;20232;-80
2023/09/06 04:58:35;;;;;;;15.43;5.20;;;24.80;80.10;;;;;;7385158;19;20374;-79
2023/09/06 05:01:10;;;;;;;12.15;5.25;;;24.70;80.10;;;;;;7384775;19;20051;-80
2023/09/06 05:03:41;;;;;;;11.07;5.43;;;24.70;80.10;;;;;;7385736;19;20006;-81
2023/09/06 05:06:11;;;;;;;17.23;5.30;;;24.70;80.20;;;;;;7384512;19;20007;-81
2023/09/06 05:08:41;;;;;;;14.18;5.68;;;24.70;80.20;;;;;;7385871;19;20341;-82
2023/09/06 05:11:10;;;;;;;16.02;5.93;;;24.70;80.20;;;;;;7408469;19;20017;-81
2023/09/06 05:13:42;;;;;;;18.98;5.63;;;24.70;80.40;;;;;;7384412;19;20014;-81
2023/09/06 05:16:13;;;;;;;17.33;5.45;;;24.70;80.50;;;;;;7385689;19;20006;-81
2023/09/06 05:18:45;;;;;;;24.50;5.85;;;24.70;80.50;;;;;;7384362;19;20278;-81
2023/09/06 05:21:14;;;;;;;13.07;5.72;;;24.70;80.50;;;;;;7386207;19;20018;-81
2023/09/06 05:23:43;;;;;;;19.38;5.95;;;24.70;80.50;;;;;;7383878;19;20027;-81
2023/09/06 05:26:12;;;;;;;15.75;5.70;;;24.60;80.60;;;;;;7403991;19;20005;-81
2023/09/06 05:28:42;;;;;;;13.02;6.15;;;24.70;80.70;;;;;;7385093;19;20066;-81
2023/09/06 05:31:11;;;;;;;18.67;6.53;;;24.70;80.70;;;;;;7384352;19;20257;-81
2023/09/06 05:33:41;;;;;;;10.18;4.63;;;24.70;80.80;;;;;;7384555;19;20242;-81
2023/09/06 05:36:12;;;;;;;19.35;6.10;;;24.70;80.70;;;;;;7383632;19;20010;-81
2023/09/06 05:38:41;;;;;;;14.10;5.40;;;24.70;80.50;;;;;;7384599;19;20007;-80
2023/09/06 05:41:10;;;;;;;12.70;5.00;;;24.70;80.50;;;;;;7403686;19;20237;-80
2023/09/06 05:43:39;;;;;;;15.90;5.68;;;24.70;80.60;;;;;;7382965;19;20062;-80
2023/09/06 05:46:08;;;;;;;13.82;5.50;;;24.70;80.60;;;;;;7383539;19;20017;-80
2023/09/06 05:48:40;;;;;;;12.25;5.10;;;24.60;80.70;;;;;;7384016;19;20028;-80
2023/09/06 05:51:24;;;;;;;10.50;5.00;;;24.70;80.70;;;;;;7389316;19;20007;-81
2023/09/06 05:53:52;;;;;;;15.80;5.63;;;24.70;80.90;;;;;;7397151;19;20315;-81
2023/09/06 05:56:24;;;;;;;13.77;5.25;;;24.70;80.90;;;;;;7399954;19;20010;-82
2023/09/06 05:58:55;;;;;;;;;;;24.70;80.90;;;;;;7419373;19;20021;-81
2023/09/06 06:04:07;;;;;;;20.75;6.53;;;24.70;80.80;;;;;;7388783;19;20014;-80
2023/09/06 06:06:45;;;;;;;21.42;6.30;;;24.80;80.90;;;;;;7382951;19;20011;-80
2023/09/06 06:09:16;;;;;;;13.43;5.57;;;24.70;80.80;;;;;;7382073;19;20017;-80
2023/09/06 06:11:49;;;;;;;22.90;5.72;;;24.80;80.90;;;;;;7383892;19;20027;-81
2023/09/06 06:14:22;;;;;;;15.20;5.43;;;24.80;80.80;;;;;;7383409;19;20097;-81
2023/09/06 06:17:04;;;;;;;14.50;5.57;;;24.90;81.00;;;;;;7403630;19;20007;-80
2023/09/06 06:19:37;;;;;;;;;;;24.90;81.10;;;;;;7381842;19;20021;-80
2023/09/06 06:22:13;;;;;;;14.13;5.30;;;24.90;81.20;;;;;;7382673;19;19935;-81
2023/09/06 06:24:47;;;;;;;8.65;5.38;;;24.90;81.00;;;;;;7382643;19;20045;-81
2023/09/06 06:27:23;;;;;;;13.25;5.03;;;24.90;81.20;;;;;;7383328;19;20356;-80
2023/09/06 06:29:55;;;;;;;14.68;6.00;;;25.00;81.30;;;;;;7382449;19;20533;-80
2023/09/06 06:32:43;;;;;;;13.95;5.32;;;25.00;81.30;;;;;;7381541;19;20002;-81
2023/09/06 06:35:21;;;;;;;14.20;5.80;;;25.00;81.40;;;;;;7402305;19;20029;-80
2023/09/06 06:37:58;;;;;;;14.52;6.15;;;25.10;81.60;;;;;;7381379;19;20017;-80
2023/09/06 06:40:30;;;;;;;11.05;5.38;;;25.10;81.60;;;;;;7380731;19;20003;-80
2023/09/06 06:42:59;;;;;;;20.27;6.00;;;25.20;81.50;;;;;;7380579;19;20010;-82
2023/09/06 06:45:28;;;;;;;17.42;5.70;;;25.20;81.50;;;;;;7380968;19;20250;-82
2023/09/06 06:47:59;;;;;;;22.33;5.95;;;25.30;81.40;;;;;;7380343;19;20013;-81
2023/09/06 06:50:28;;;;;;;;;;;25.30;81.40;;;;;;7381803;19;20011;-81
2023/09/06 06:52:59;;;;;;;14.80;5.50;;;25.40;81.50;;;;;;7401467;19;19918;-81
2023/09/06 06:55:28;;;;;;;18.90;6.40;;;25.40;81.30;;;;;;7380586;19;20010;-81
2023/09/06 06:57:57;;;;;;;11.18;5.90;;;25.50;81.20;;;;;;7383434;19;20306;-82
2023/09/06 07:00:31;;;;;;;16.17;6.00;;;25.50;81.20;;;;;;7383144;19;20007;-81
2023/09/06 07:03:00;;;;;;;18.40;6.18;;;25.50;81.40;;;;;;7382666;19;20070;-81
2023/09/06 07:05:31;;;;;;;20.15;6.18;;;25.60;81.60;;;;;;7382657;19;20014;-81
2023/09/06 07:08:04;;;;;;;20.70;6.28;;;25.70;81.50;;;;;;7401465;19;20013;-81
2023/09/06 07:10:33;;;;;;;17.80;6.95;;;25.70;81.30;;;;;;7381093;19;20241;-80
2023/09/06 07:13:03;;;;;;;20.00;6.72;;;25.80;81.20;;;;;;7380808;19;20014;-81
2023/09/06 07:15:31;;;;;;;14.25;7.10;;;25.80;81.00;;;;;;7381110;19;20373;-80
2023/09/06 07:18:04;;;;;;;15.77;7.38;;;25.80;81.00;;;;;;7380656;19;20049;-80
2023/09/06 07:20:33;;;;;;;13.45;6.70;;;25.90;81.00;;;;;;7379466;19;20068;-81
2023/09/06 07:23:04;;;;;;;16.95;6.90;;;25.90;81.00;;;;;;7400631;19;20003;-80
2023/09/06 07:25:33;;;;;;;16.13;6.80;;;26.00;81.10;;;;;;7381015;19;20097;-81
2023/09/06 07:28:04;;;;;;;17.73;6.90;;;26.10;81.20;;;;;;7380686;19;20059;-81
2023/09/06 07:30:32;;;;;;;21.35;9.18;;;26.10;81.00;;;;;;7379795;19;20014;-80
2023/09/06 07:33:01;;;;;;;26.25;8.85;;;26.20;81.10;;;;;;7386611;19;20266;-81
2023/09/06 07:35:33;;;;;;;22.23;8.43;;;26.20;81.10;;;;;;7386901;19;20019;-81
2023/09/06 07:38:05;;;;;;;16.83;7.32;;;26.20;81.00;;;;;;7407706;19;20010;-81
2023/09/06 07:40:34;;;;;;;20.10;7.70;;;26.30;81.00;;;;;;7388538;19;20033;-80
2023/09/06 07:43:04;;;;;;;31.05;8.60;;;26.40;81.10;;;;;;7398484;19;20011;-81
2023/09/06 07:45:33;;;;;;;17.25;7.35;;;26.40;82.00;;;;;;7402107;19;20015;-81
2023/09/06 07:48:03;;;;;;;17.70;7.65;;;26.50;81.30;;;;;;7397927;19;20029;-80
2023/09/06 07:50:32;;;;;;;18.08;8.07;;;26.60;81.30;;;;;;7391163;19;20250;-80
2023/09/06 07:53:01;;;;;;;26.08;8.15;;;26.60;81.30;;;;;;7409987;19;20022;-80
2023/09/06 07:55:32;;;;;;;16.75;6.88;;;26.70;81.40;;;;;;7384549;19;20019;-80
2023/09/06 07:58:01;;;;;;;26.05;7.35;;;26.70;81.50;;;;;;7386536;19;20013;-80
2023/09/06 08:00:31;;;;;;;22.02;7.05;;;26.80;81.60;;;;;;7385818;19;20023;-81
2023/09/06 08:03:00;;;;;;;14.27;6.72;;;26.90;81.60;;;;;;7387608;19;20066;-81
2023/09/06 08:05:29;;;;;;;18.85;7.00;;;26.90;81.50;;;;;;7385525;19;20003;-80
2023/09/06 08:07:58;;;;;;;26.33;6.85;;;27.00;81.30;;;;;;7408098;19;20007;-80
2023/09/06 08:10:27;;;;;;;13.98;6.72;;;27.00;81.00;;;;;;7386484;19;20015;-80
2023/09/06 08:13:08;;;;;;;21.42;7.40;;;27.10;80.80;;;;;;7385744;19;20006;-80
2023/09/06 08:15:39;;;;;;;15.80;6.70;;;27.10;80.60;;;;;;7384567;19;20014;-80
2023/09/06 08:18:12;;;;;;;12.07;6.07;;;27.10;80.50;;;;;;7387336;19;20007;-80
2023/09/06 08:20:44;;;;;;;17.58;6.45;;;27.20;80.50;;;;;;7387344;19;20013;-81
2023/09/06 08:23:13;;;;;;;20.80;6.13;;;27.20;80.30;;;;;;7405321;19;20005;-81
2023/09/06 08:25:42;;;;;;;12.20;6.45;;;27.30;80.40;;;;;;7385835;19;19999;-81
2023/09/06 08:28:17;;;;;;;19.15;6.10;;;27.30;80.30;;;;;;7385567;19;20014;-81
2023/09/06 08:30:51;;;;;;;16.80;6.28;;;27.30;80.10;;;;;;7387184;19;20027;-81
2023/09/06 08:33:21;;;;;;;14.48;5.82;;;27.40;80.20;;;;;;7385658;19;20010;-81
2023/09/06 08:35:54;;;;;;;15.13;5.78;;;27.40;80.20;;;;;;7384616;19;19999;-81
2023/09/06 08:38:23;;;;;;;17.55;5.75;;;27.40;80.00;;;;;;7383979;19;20009;-81
2023/09/06 08:40:52;;;;;;;12.02;5.70;;;27.50;79.80;;;;;;7405769;19;20015;-81
2023/09/06 08:43:30;;;;;;;17.58;6.32;;;27.50;79.80;;;;;;7385378;19;20038;-81
2023/09/06 08:46:08;;;;;;;15.90;5.82;;;27.50;79.70;;;;;;7385264;19;20022;-81
2023/09/06 08:48:45;;;;;;;16.67;5.90;;;27.60;79.60;;;;;;7384904;19;20006;-81
2023/09/06 08:51:24;;;;;;;12.50;5.53;;;27.60;79.50;;;;;;7384790;19;20011;-81
2023/09/06 08:53:58;;;;;;;13.40;5.47;;;27.60;79.50;;;;;;7383576;19;20501;-81
2023/09/06 08:56:45;;;;;;;13.93;6.15;;;27.70;79.50;;;;;;7385085;19;20014;-81
2023/09/06 08:59:19;;;;;;;19.75;5.88;;;27.80;79.50;;;;;;7406170;19;20020;-81
2023/09/06 09:01:51;;;;;;;11.90;5.28;;;27.70;79.40;;;;;;7385882;19;20007;-81
2023/09/06 09:04:31;;;;;;;18.27;5.60;;;27.70;79.50;;;;;;7385535;19;20042;-81
2023/09/06 09:07:03;;;;;;;12.65;5.38;;;27.80;79.70;;;;;;7386640;19;20007;-81
2023/09/06 09:10:14;;;;;;;10.43;5.28;;;27.80;79.90;;;;;;7388471;19;20281;-81
2023/09/06 09:12:49;;;;;;;17.08;5.07;;;27.80;80.00;;;;;;7387897;19;20011;-81
2023/09/06 09:15:26;;;;;;;14.48;5.78;;;27.90;79.70;;;;;;7384177;19;20290;-81
2023/09/06 09:18:16;;;;;;;12.48;5.50;;;27.90;79.60;;;;;;7384840;19;20010;-81
2023/09/06 09:20:59;;;;;;;;;;;;;;;;;;;;;
2023/09/06 09:23:38;;;;;;;12.90;4.90;;;28.00;79.10;;;;;;7387843;19;20006;-81
2023/09/06 09:26:21;;;;;;;16.98;4.82;;;28.00;78.20;;;;;;7411253;19;20007;-81
2023/09/06 09:32:02;;;;;;;19.85;5.20;;;28.10;77.40;;;;;;7386337;19;20362;-81
2023/09/06 09:34:38;;;;;;;20.77;5.38;;;28.20;77.20;;;;;;7386335;19;20015;-81
2023/09/06 09:37:17;;;;;;;17.70;5.07;;;28.20;77.20;;;;;;7387500;19;20294;-82
2023/09/06 09:40:32;;;;;;;17.00;5.15;;;28.20;77.80;;;;;;7390363;19;20018;-81
2023/09/06 09:43:05;;;;;;;14.10;4.95;;;28.20;78.00;;;;;;7382856;19;20070;-81
2023/09/06 09:46:04;;;;;;;14.50;4.75;;;28.30;77.70;;;;;;7383981;19;20397;-81
2023/09/06 09:52:05;;;;;;;13.93;4.90;;;28.40;77.20;;;;;;7381855;19;20088;-81
2023/09/06 09:55:03;;;;;;;13.05;4.60;;;28.40;76.80;;;;;;7385770;19;20031;-81
2023/09/06 09:57:53;;;;;;;11.30;4.68;;;28.40;77.20;;;;;;7382488;19;20042;-80
2023/09/06 10:00:39;;;;;;;25.77;4.82;;;28.40;76.90;;;;;;7381169;19;20002;-81
2023/09/06 10:03:28;;;;;;;12.52;4.80;;;28.40;76.00;;;;;;7381396;19;20006;-81
2023/09/06 10:06:14;;;;;;;15.27;4.97;;;28.40;75.00;;;;;;7383245;19;20006;-81
2023/09/06 10:09:00;;;;;;;14.50;4.90;;;28.40;75.30;;;;;;7381343;19;20011;-80
2023/09/06 10:11:37;;;;;;;15.73;5.13;;;28.50;74.50;;;;;;7382123;19;20031;-80
2023/09/06 10:14:27;;;;;;;;;;;;;;;;;;;;;
2023/09/06 10:17:05;;;;;;;8.43;4.75;;;28.50;74.70;;;;;;7381102;19;20517;-80
2023/09/06 10:19:44;;;;;;;11.75;5.05;;;28.60;74.30;;;;;;7383411;19;20074;-81
2023/09/06 10:22:34;;;;;;;13.07;4.78;;;28.70;74.30;;;;;;7383422;19;20353;-80
2023/09/06 10:25:25;;;;;;;15.13;5.38;;;28.70;74.30;;;;;;7382461;19;19998;-81
2023/09/06 10:28:07;;;;;;;13.50;5.03;;;28.70;74.00;;;;;;7386570;19;20387;-81
2023/09/06 10:31:07;;;;;;;11.48;4.97;;;28.80;73.50;;;;;;7387478;19;20030;-80
2023/09/06 10:34:03;;;;;;;14.48;5.50;;;28.80;73.00;;;;;;7387336;19;20024;-81
2023/09/06 10:36:54;;;;;;;18.92;5.43;;;28.90;73.80;;;;;;7385112;19;20380;-81
2023/09/06 10:39:39;;;;;;;16.27;5.15;;;28.90;72.90;;;;;;7383284;19;20011;-81
2023/09/06 10:42:45;;;;;;;8.93;4.90;;;29.00;72.60;;;;;;7383153;19;20015;-82
2023/09/06 10:45:33;;;;;;;17.90;5.38;;;29.10;72.30;;;;;;7381975;19;20002;-81
2023/09/06 10:51:16;;;;;;;;;;;29.20;72.10;;;;;;7382083;19;20022;-82
2023/09/06 10:53:55;;;;;;;13.25;5.20;;;29.20;71.90;;;;;;7383220;19;19915;-81
2023/09/06 10:56:59;;;;;;;17.05;5.28;;;29.40;72.20;;;;;;7382003;19;20055;-82
2023/09/06 11:00:01;;;;;;;8.48;5.05;;;29.40;71.60;;;;;;7380983;19;20058;-81
2023/09/06 11:03:05;;;;;;;9.82;4.57;;;29.40;70.60;;;;;;7382306;19;20046;-82
2023/09/06 11:05:58;;;;;;;13.70;4.75;;;29.50;70.40;;;;;;7380361;19;20034;-82
2023/09/06 11:09:07;;;;;;;;;;;;;;;;;;;;;
2023/09/06 11:12:19;;;;;;;15.65;5.22;;;29.60;70.50;;;;;;7390698;19;20023;-81
2023/09/06 11:15:11;;;;;;;13.80;5.07;;;29.70;70.50;;;;;;7392288;19;20449;-80
2023/09/06 11:21:31;;;;;;;14.57;4.40;;;29.80;70.00;;;;;;7401990;19;20022;-82
2023/09/06 11:24:24;;;;;;;14.32;4.80;;;29.80;69.70;;;;;;7409731;19;20014;-80
2023/09/06 11:27:05;;;;;;;14.88;4.63;;;29.80;69.70;;;;;;7409206;19;20007;-81
2023/09/06 11:29:34;;;;;;;;;;;29.90;69.40;;;;;;7403639;19;20013;-82
2023/09/06 11:35:19;;;;;;;19.42;4.50;;;30.10;69.50;;;;;;7389462;19;20023;-80
2023/09/06 11:38:00;;;;;;;16.42;4.72;;;30.10;69.00;;;;;;7387729;19;20066;-81
2023/09/06 11:40:32;;;;;;;;;;;30.20;68.50;;;;;;7386509;19;20401;-80
2023/09/06 11:43:23;;;;;;;;;;;30.20;68.30;;;;;;7386654;19;20246;-80
2023/09/06 11:46:09;;;;;;;8.23;4.50;;;30.30;68.20;;;;;;7387363;19;19939;-80
2023/09/06 11:51:49;;;;;;;6.90;4.30;;;30.40;68.30;;;;;;7387775;19;20003;-81
2023/09/06 11:55:12;;;;;;;8.48;4.25;;;30.50;68.20;;;;;;7389625;19;20051;-82
2023/09/06 11:58:26;;;;;;;9.50;4.35;;;30.60;67.70;;;;;;7385050;19;20296;-81
2023/09/06 12:01:19;;;;;;;5.55;4.10;;;30.60;67.60;;;;;;7384622;19;20006;-81
2023/09/06 12:03:56;;;;;;;5.90;3.88;;;30.70;67.30;;;;;;7362322;19;20011;-81
2023/09/06 12:06:49;;;;;;;6.50;3.90;;;30.80;66.80;;;;;;7407818;19;20066;-81
2023/09/06 12:09:36;;;;;;;11.70;3.78;;;30.80;66.10;;;;;;7383707;19;20068;-82
2023/09/06 12:12:37;;;;;;;7.30;3.88;;;30.90;66.20;;;;;;7385231;19;20227;-82
2023/09/06 12:15:26;;;;;;;8.82;4.30;;;31.00;66.20;;;;;;7382260;19;20025;-82
2023/09/06 12:21:14;;;;;;;7.07;4.30;;;31.10;66.00;;;;;;7382067;19;20069;-80
2023/09/06 12:24:24;;;;;;;;;;;;;;;;;;;;;
2023/09/06 12:27:30;;;;;;;;;;;;;;;;;;;;;
2023/09/06 12:33:55;;;;;;;12.75;4.35;;;31.40;64.80;;;;;;7402029;19;20007;-81
2023/09/06 13:06:49;;;;;;;13.20;4.30;;;32.00;63.80;;;;;;5926552;19;19259235;-82
2023/09/06 13:10:15;;;;;;;;;;;;;;;;;;;;;
2023/09/06 13:44:10;;;;;;;8.77;4.38;;;32.90;61.20;;;;;;7415340;19;20010;-82
2023/09/06 14:27:00;;;;;;;14.25;4.35;;;33.50;59.10;;;;;;7414128;19;20369;-82
2023/09/06 14:30:17;;;;;;;;;;;;;;;;;;;;;
2023/09/06 14:33:25;;;;;;;11.65;3.75;;;33.70;59.00;;;;;;7414152;19;20006;-81
2023/09/06 14:36:20;;;;;;;17.55;4.07;;;33.70;59.10;;;;;;7412590;19;19998;-82
2023/09/06 14:42:37;;;;;;;13.30;4.13;;;33.80;58.80;;;;;;7412402;19;20006;-81
2023/09/06 14:55:26;;;;;;;13.85;3.92;;;33.90;58.40;;;;;;7415526;19;20010;-81
2023/09/06 15:01:45;;;;;;;;;;;;;;;;;;;;;
2023/09/06 15:04:41;;;;;;;9.10;3.80;;;33.90;57.30;;;;;;7391161;19;20022;-82
2023/09/06 15:10:50;;;;;;;;;;;;;;;;;;;;;
2023/09/06 15:16:56;;;;;;;7.85;3.95;;;34.00;58.30;;;;;;7384357;19;20023;-82
2023/09/06 15:20:10;;;;;;;;;;;;;;;;;;;;;
2023/09/06 15:23:27;;;;;;;15.45;4.40;;;34.00;57.50;;;;;;7384396;19;20010;-81
2023/09/06 15:26:22;;;;;;;13.48;3.67;;;33.90;56.90;;;;;;7384115;19;20013;-81
2023/09/06 15:29:43;;;;;;;;;;;;;;;;;;;;;
2023/09/06 15:39:55;;;;;;;6.93;3.75;;;34.00;56.90;;;;;;7383887;19;20015;-82
2023/09/06 15:42:58;;;;;;;8.48;4.00;;;34.00;56.90;;;;;;7382352;19;20007;-81
2023/09/06 15:48:39;;;;;;;14.10;3.78;;;34.10;56.70;;;;;;7381926;19;20007;-81
2023/09/06 16:01:30;;;;;;;;;;;;;;;;;;;;;
2023/09/06 16:21:31;;;;;;;7.63;2.78;;;34.60;56.90;;;;;;7379964;19;20029;-82
2023/09/06 16:37:26;;;;;;;3.72;2.10;;;36.80;51.40;;;;;;7403750;19;19998;-82
2023/09/06 16:49:50;;;;;;;5.82;2.05;;;40.80;46.60;;;;;;7401315;19;20045;-82
2023/09/06 16:56:14;;;;;;;3.25;1.88;;;42.40;43.40;;;;;;7381821;19;20010;-82
2023/09/06 16:58:55;;;;;;;8.60;1.92;;;42.90;42.90;;;;;;7383016;19;20105;-81
2023/09/06 17:01:44;;;;;;;;;;;43.30;42.80;;;;;;7382321;19;20013;-82
2023/09/06 17:04:30;;;;;;;5.53;1.88;;;43.70;42.40;;;;;;7381480;19;19932;-83
2023/09/06 17:09:59;;;;;;;6.90;2.03;;;43.90;42.00;;;;;;7382920;19;20027;-82
2023/09/06 17:15:39;;;;;;;5.90;1.90;;;43.90;41.60;;;;;;7379821;19;20381;-81
2023/09/06 17:18:16;;;;;;;7.65;1.95;;;43.50;41.10;;;;;;7379747;19;20406;-81
2023/09/06 17:21:11;;;;;;;12.23;1.90;;;42.70;42.00;;;;;;7380905;19;20003;-82
2023/09/06 17:23:45;;;;;;;5.85;2.20;;;41.30;43.30;;;;;;7381032;19;20022;-82
2023/09/06 17:26:23;;;;;;;7.90;2.08;;;40.10;44.60;;;;;;7401962;19;20010;-81
2023/09/06 17:28:57;;;;;;;4.90;2.45;;;39.00;46.50;;;;;;7382452;19;20354;-81
2023/09/06 17:31:27;;;;;;;10.10;2.10;;;38.00;48.40;;;;;;7383252;19;19998;-81
2023/09/06 17:34:00;;;;;;;6.10;2.33;;;37.30;50.20;;;;;;7384473;19;20037;-83
2023/09/06 17:36:33;;;;;;;5.57;2.42;;;36.50;51.80;;;;;;7383640;19;20066;-82
2023/09/06 17:39:02;;;;;;;5.15;2.42;;;35.90;52.70;;;;;;7382693;19;20006;-82
2023/09/06 17:41:35;;;;;;;3.53;2.42;;;35.30;54.10;;;;;;7384335;19;20011;-82
2023/09/06 17:44:14;;;;;;;3.60;2.10;;;34.80;55.00;;;;;;7407087;19;20002;-81
2023/09/06 17:47:01;;;;;;;5.72;3.20;;;34.40;55.90;;;;;;7385649;19;20002;-81
2023/09/06 17:49:35;;;;;;;6.18;3.75;;;34.00;56.60;;;;;;7384251;19;20277;-81